createdAt,value
2022-08-09T00:02:57.804Z,53.20
2022-08-09T00:08:01.442Z,53.30
2022-08-09T00:13:06.705Z,53.07
2022-08-09T00:18:22.157Z,53.79
2022-08-09T00:23:55.553Z,53.91
2022-08-09T00:28:52.181Z,54.02
2022-08-09T00:33:57.841Z,54.25
2022-08-09T00:39:01.016Z,54.21
2022-08-09T00:44:10.446Z,54.22
2022-08-09T00:49:25.096Z,54.49
2022-08-09T00:54:35.251Z,54.82
2022-08-09T00:59:46.594Z,55.22
2022-08-09T01:05:03.257Z,54.75
2022-08-09T01:10:17.073Z,55.45
2022-08-09T01:15:25.486Z,55.61
2022-08-09T01:20:41.188Z,55.84
2022-08-09T01:26:02.043Z,55.90
2022-08-09T01:31:11.196Z,56.30
2022-08-09T01:36:35.962Z,56.21
2022-08-09T01:41:53.563Z,56.58
2022-08-09T01:47:03.028Z,56.20
2022-08-09T01:52:10.269Z,56.33
2022-08-09T01:57:16.658Z,56.49
2022-08-09T02:02:23.917Z,57.10
2022-08-09T02:08:39.693Z,57.27
2022-08-09T02:13:04.168Z,58.12
2022-08-09T02:18:10.940Z,58.48
2022-08-09T02:23:18.454Z,58.03
2022-08-09T02:28:26.264Z,58.00
2022-08-09T02:33:38.443Z,57.91
2022-08-09T02:39:04.173Z,58.02
2022-08-09T02:44:28.981Z,58.54
2022-08-09T02:49:41.420Z,58.44
2022-08-09T02:54:54.265Z,59.36
2022-08-09T03:00:21.195Z,59.45
2022-08-09T03:05:26.983Z,59.40
2022-08-09T03:10:31.051Z,59.44
2022-08-09T03:16:04.547Z,59.59
2022-08-09T03:21:00.544Z,59.69
2022-08-09T03:26:05.118Z,59.79
2022-08-09T03:31:10.339Z,60.44
2022-08-09T03:36:28.134Z,60.33
2022-08-09T03:41:46.036Z,60.41
2022-08-09T03:46:52.013Z,60.67
2022-08-09T03:52:00.082Z,60.89
2022-08-09T03:57:18.638Z,60.37
2022-08-09T04:02:27.604Z,60.31
2022-08-09T04:07:51.135Z,59.81
2022-08-09T04:12:55.915Z,60.35
2022-08-09T04:18:00.736Z,59.98
2022-08-09T04:23:09.767Z,59.87
2022-08-09T04:28:13.147Z,59.96
2022-08-09T04:33:16.117Z,59.29
2022-08-09T04:38:20.493Z,55.82
2022-08-09T04:43:25.276Z,51.50
2022-08-09T04:48:33.396Z,49.18
2022-08-09T04:53:38.297Z,47.87
2022-08-09T04:58:42.422Z,48.61
2022-08-09T05:03:45.538Z,50.04
2022-08-09T05:08:52.568Z,49.65
2022-08-09T05:14:05.942Z,49.66
2022-08-09T05:19:09.267Z,49.48
2022-08-09T05:24:13.706Z,48.54
2022-08-09T05:29:21.648Z,49.90
2022-08-09T05:34:30.678Z,49.37
2022-08-09T05:39:42.542Z,49.19
2022-08-09T05:44:47.717Z,50.06
2022-08-09T05:50:24.349Z,50.04
2022-08-09T05:55:21.195Z,49.15
2022-08-09T06:00:25.068Z,48.37
2022-08-09T06:05:49.758Z,47.66
2022-08-09T06:10:55.132Z,45.06
2022-08-09T06:15:58.137Z,42.68
2022-08-09T06:21:06.503Z,41.55
2022-08-09T06:26:10.948Z,42.06
2022-08-09T06:31:14.000Z,40.56
2022-08-09T06:36:17.006Z,39.81
2022-08-09T06:41:23.375Z,37.55
2022-08-09T06:46:48.196Z,37.08
2022-08-09T06:51:52.848Z,36.07
2022-08-09T06:56:57.303Z,36.24
2022-08-09T07:02:03.533Z,35.73
2022-08-09T07:07:07.563Z,36.77
2022-08-09T07:12:17.847Z,36.19
2022-08-09T07:17:21.980Z,34.36
2022-08-09T07:22:34.396Z,32.41
2022-08-09T07:27:42.966Z,33.22
2022-08-09T07:32:56.079Z,33.05
2022-08-09T07:37:59.217Z,33.51
2022-08-09T07:43:14.769Z,34.63
2022-08-09T07:48:25.776Z,36.48
2022-08-09T07:54:01.652Z,34.06
2022-08-09T07:58:59.860Z,36.07
2022-08-09T08:04:03.888Z,34.57
2022-08-09T08:09:18.321Z,32.79
2022-08-09T08:14:38.400Z,32.71
2022-08-09T08:19:41.535Z,32.43
2022-08-09T08:24:49.336Z,29.15
2022-08-09T08:29:56.396Z,28.90
2022-08-09T08:35:00.120Z,27.81
2022-08-09T08:40:03.329Z,28.22
2022-08-09T08:45:11.825Z,30.31
2022-08-09T08:50:19.926Z,27.11
2022-08-09T08:55:24.508Z,27.03
2022-08-09T09:00:34.366Z,27.96
2022-08-09T09:06:00.833Z,26.42
2022-08-09T09:11:04.136Z,25.62
2022-08-09T09:16:09.532Z,24.40
2022-08-09T09:21:14.847Z,25.81
2022-08-09T09:26:18.575Z,25.44
2022-08-09T09:32:05.887Z,27.55
2022-08-09T09:36:54.086Z,27.64
2022-08-09T09:41:59.105Z,24.69
2022-08-09T09:47:09.620Z,24.99
2022-08-09T09:52:16.736Z,25.24
2022-08-09T09:58:02.226Z,23.95
2022-08-09T10:03:09.098Z,24.80
2022-08-09T10:08:28.031Z,26.24
2022-08-09T10:13:45.137Z,27.61
2022-08-09T10:18:56.399Z,26.16
2022-08-09T10:24:05.116Z,24.80
2022-08-09T10:29:38.039Z,22.58
2022-08-09T10:34:35.842Z,24.89
2022-08-09T10:39:49.116Z,26.20
2022-08-09T10:44:59.462Z,26.57
2022-08-09T10:50:16.361Z,28.25
2022-08-09T10:55:25.687Z,27.78
2022-08-09T11:00:56.856Z,27.65
2022-08-09T11:06:24.548Z,27.81
2022-08-09T11:12:07.003Z,27.99
2022-08-09T11:17:53.735Z,26.97
2022-08-09T11:23:10.347Z,25.60
2022-08-09T11:28:54.688Z,24.81
2022-08-09T11:34:05.070Z,22.40
2022-08-09T11:39:12.155Z,24.38
2022-08-09T11:44:16.115Z,25.62
2022-08-09T11:49:28.047Z,24.42
2022-08-09T11:54:34.697Z,26.05
2022-08-09T11:59:38.220Z,25.79
2022-08-09T12:04:41.820Z,24.40
2022-08-09T12:09:50.577Z,23.94
2022-08-09T12:15:08.008Z,25.11
2022-08-09T12:20:19.832Z,24.69
2022-08-09T12:25:35.644Z,25.46
2022-08-09T12:30:42.104Z,26.17
2022-08-09T12:35:47.918Z,24.51
2022-08-09T12:40:55.012Z,23.35
2022-08-09T12:46:00.621Z,25.51
2022-08-09T12:51:04.525Z,24.48
2022-08-09T12:56:37.114Z,25.92
2022-08-09T13:01:47.087Z,25.84
2022-08-09T13:06:54.161Z,25.31
2022-08-09T13:12:03.052Z,25.71
2022-08-09T13:17:08.667Z,24.88
2022-08-09T13:22:37.280Z,24.58
2022-08-09T13:27:48.914Z,26.43
2022-08-09T13:32:58.699Z,25.32
2022-08-09T13:38:03.484Z,24.71
2022-08-09T13:43:10.279Z,23.98
2022-08-09T13:48:18.576Z,21.81
2022-08-09T13:53:21.745Z,22.71
2022-08-09T13:58:45.070Z,22.86
2022-08-09T14:04:02.404Z,24.31
2022-08-09T14:09:09.230Z,25.58
2022-08-09T14:14:23.377Z,26.10
2022-08-09T14:19:33.284Z,25.29
2022-08-09T14:24:36.651Z,25.51
2022-08-09T14:30:35.287Z,25.30
2022-08-09T14:35:14.415Z,25.95
2022-08-09T14:40:18.526Z,25.66
2022-08-09T14:46:55.884Z,26.18
2022-08-09T14:51:06.473Z,26.74
2022-08-09T14:56:13.247Z,25.23
2022-08-09T15:01:17.861Z,25.08
2022-08-09T15:06:23.702Z,25.80
2022-08-09T15:11:28.734Z,26.52
2022-08-09T15:16:34.135Z,25.61
2022-08-09T15:21:54.982Z,25.11
2022-08-09T15:27:00.804Z,24.41
2022-08-09T15:32:05.949Z,23.59
2022-08-09T15:37:56.869Z,23.98
2022-08-09T15:43:02.630Z,22.62
2022-08-09T15:48:28.413Z,22.94
2022-08-09T15:54:05.213Z,23.17
2022-08-09T15:58:54.537Z,23.83
2022-08-09T16:03:58.875Z,25.04
2022-08-09T16:09:03.343Z,25.25
2022-08-09T16:14:08.459Z,26.25
2022-08-09T16:19:14.683Z,26.44
2022-08-09T16:24:33.753Z,26.39
2022-08-09T16:29:49.934Z,26.80
2022-08-09T16:34:59.510Z,26.33
2022-08-09T16:40:06.838Z,26.29
2022-08-09T16:45:10.684Z,26.54
2022-08-09T16:50:29.656Z,26.20
2022-08-09T16:55:58.254Z,26.36
2022-08-09T17:00:57.158Z,25.95
2022-08-09T17:06:08.264Z,26.92
2022-08-09T17:11:41.302Z,26.98
2022-08-09T17:16:45.560Z,27.47
2022-08-09T17:21:55.476Z,27.80
2022-08-09T17:26:58.963Z,28.06
2022-08-09T17:32:02.174Z,27.68
2022-08-09T17:37:07.539Z,27.45
2022-08-09T17:42:51.425Z,27.77
2022-08-09T17:47:49.690Z,27.73
2022-08-09T17:52:59.420Z,27.84
2022-08-09T17:58:05.490Z,28.24
2022-08-09T18:03:12.035Z,28.49
2022-08-09T18:08:16.838Z,28.67
2022-08-09T18:13:53.529Z,30.24
2022-08-09T18:18:49.084Z,31.01
2022-08-09T18:24:10.522Z,31.28
2022-08-09T18:30:41.837Z,31.48
2022-08-09T18:34:39.740Z,32.13
2022-08-09T18:39:46.103Z,32.54
2022-08-09T18:44:51.609Z,32.70
2022-08-09T18:49:56.094Z,33.22
2022-08-09T18:55:13.872Z,33.55
2022-08-09T19:00:20.314Z,33.73
2022-08-09T19:05:41.394Z,33.77
2022-08-09T19:10:48.772Z,34.55
2022-08-09T19:15:56.332Z,34.58
2022-08-09T19:21:00.743Z,35.51
2022-08-09T19:26:07.141Z,35.59
2022-08-09T19:31:14.913Z,35.31
2022-08-09T19:36:23.263Z,35.25
2022-08-09T19:41:35.861Z,36.04
2022-08-09T19:46:50.515Z,35.84
2022-08-09T19:51:57.027Z,36.76
2022-08-09T19:57:01.659Z,37.36
2022-08-09T20:03:23.876Z,37.97
2022-08-09T20:07:33.900Z,38.54
2022-08-09T20:12:53.879Z,38.46
2022-08-09T20:17:59.571Z,39.26
2022-08-09T20:23:02.706Z,38.58
2022-08-09T20:28:07.240Z,38.72
2022-08-09T20:33:15.946Z,39.16
2022-08-09T20:38:33.110Z,39.92
2022-08-09T20:43:44.680Z,40.53
2022-08-09T20:48:48.045Z,41.13
2022-08-09T20:53:51.205Z,40.92
2022-08-09T20:58:58.645Z,41.15
2022-08-09T21:04:08.346Z,41.37
2022-08-09T21:09:41.673Z,42.23
2022-08-09T21:14:49.712Z,42.22
2022-08-09T21:20:17.244Z,42.62
2022-08-09T21:25:44.161Z,42.82
2022-08-09T21:31:00.980Z,42.88
2022-08-09T21:36:23.261Z,43.83
2022-08-09T21:42:05.854Z,44.41
2022-08-09T21:46:56.527Z,44.05
2022-08-09T21:52:05.913Z,44.88
2022-08-09T21:57:37.184Z,44.86
2022-08-09T22:02:43.115Z,45.07
2022-08-09T22:07:51.799Z,45.98
2022-08-09T22:12:55.790Z,46.32
2022-08-09T22:18:00.197Z,46.65
2022-08-09T22:23:04.808Z,46.61
2022-08-09T22:28:08.031Z,46.79
2022-08-09T22:33:12.420Z,47.38
2022-08-09T22:38:20.581Z,47.63
2022-08-09T22:44:01.845Z,47.42
2022-08-09T22:48:50.512Z,48.01
2022-08-09T22:54:02.953Z,48.23
2022-08-09T22:59:57.857Z,48.94
2022-08-09T23:04:32.739Z,49.02
2022-08-09T23:09:36.176Z,49.01
2022-08-09T23:14:42.237Z,49.69
2022-08-09T23:20:06.260Z,49.20
2022-08-09T23:25:10.979Z,50.42
2022-08-09T23:30:14.307Z,51.23
2022-08-09T23:35:18.788Z,50.97
2022-08-09T23:40:21.908Z,51.15
2022-08-09T23:45:36.994Z,50.73
2022-08-09T23:50:42.932Z,51.24
2022-08-09T23:55:49.447Z,51.21
